createdAt,value
2023-05-22T00:03:24.446Z,9.65
2023-05-22T00:08:29.617Z,10.13
2023-05-22T00:13:31.825Z,10.23
2023-05-22T00:18:33.430Z,10.55
2023-05-22T00:23:35.350Z,10.40
2023-05-22T00:28:36.928Z,11.55
2023-05-22T00:33:38.572Z,11.20
2023-05-22T00:38:40.226Z,11.05
2023-05-22T00:43:41.849Z,11.32
2023-05-22T00:48:43.471Z,10.68
2023-05-22T00:53:46.649Z,11.07
2023-05-22T00:58:48.524Z,11.32
2023-05-22T01:03:50.935Z,11.18
2023-05-22T01:08:52.589Z,11.70
2023-05-22T01:14:23.493Z,11.47
2023-05-22T01:19:41.465Z,11.37
2023-05-22T01:24:58.183Z,11.20
2023-05-22T01:30:35.816Z,11.33
2023-05-22T01:35:41.041Z,10.23
2023-05-22T01:40:44.723Z,10.37
2023-05-22T01:45:46.405Z,10.57
2023-05-22T01:50:51.551Z,10.37
2023-05-22T01:56:05.442Z,10.15
2023-05-22T02:01:10.226Z,10.93
2023-05-22T02:06:14.480Z,10.93
2023-05-22T02:11:17.352Z,10.67
2023-05-22T02:16:21.802Z,10.10
2023-05-22T02:21:23.612Z,10.63
2023-05-22T02:26:25.561Z,10.32
2023-05-22T02:31:27.239Z,10.37
2023-05-22T02:36:30.978Z,10.80
2023-05-22T02:41:32.716Z,9.57
2023-05-22T02:46:34.342Z,10.77
2023-05-22T02:51:35.975Z,10.03
2023-05-22T02:56:37.637Z,9.63
2023-05-22T03:01:39.756Z,10.07
2023-05-22T03:06:41.860Z,10.33
2023-05-22T03:11:43.496Z,9.50
2023-05-22T03:16:45.420Z,10.00
2023-05-22T03:21:48.555Z,10.67
2023-05-22T03:26:50.183Z,10.43
2023-05-22T03:31:51.838Z,10.23
2023-05-22T03:36:53.530Z,9.13
2023-05-22T03:41:55.140Z,10.10
2023-05-22T03:46:56.835Z,9.70
2023-05-22T03:51:58.393Z,9.27
2023-05-22T03:56:59.980Z,9.97
2023-05-22T04:02:01.753Z,10.67
2023-05-22T04:07:03.465Z,10.30
2023-05-22T04:12:05.559Z,9.90
2023-05-22T04:17:07.264Z,10.30
2023-05-22T04:22:08.907Z,9.87
2023-05-22T04:27:10.524Z,10.53
2023-05-22T04:32:12.121Z,11.27
2023-05-22T04:37:15.237Z,10.33
2023-05-22T04:42:17.466Z,10.07
2023-05-22T04:47:19.563Z,11.20
2023-05-22T04:52:21.889Z,10.57
2023-05-22T04:57:25.616Z,10.70
2023-05-22T05:02:27.412Z,10.70
2023-05-22T05:07:29.500Z,12.23
2023-05-22T05:12:31.106Z,10.93
2023-05-22T05:17:32.742Z,10.57
2023-05-22T05:22:34.645Z,10.23
2023-05-22T05:27:36.210Z,9.83
2023-05-22T05:32:38.406Z,9.90
2023-05-22T05:37:40.024Z,9.13
2023-05-22T05:42:41.585Z,9.98
2023-05-22T05:47:43.366Z,11.07
2023-05-22T05:52:45.298Z,9.52
2023-05-22T05:57:46.937Z,10.77
2023-05-22T06:02:50.715Z,10.57
2023-05-22T06:07:52.961Z,10.77
2023-05-22T06:12:54.519Z,10.75
2023-05-22T06:17:56.325Z,10.17
2023-05-22T06:22:57.973Z,10.30
2023-05-22T06:27:59.558Z,9.75
2023-05-22T06:33:01.266Z,9.90
2023-05-22T06:38:03.002Z,9.88
2023-05-22T06:43:04.617Z,11.20
2023-05-22T06:48:06.684Z,11.40
2023-05-22T06:53:08.411Z,11.27
2023-05-22T06:58:10.224Z,10.70
2023-05-22T07:03:12.127Z,10.80
2023-05-22T07:08:13.933Z,10.85
2023-05-22T07:13:15.629Z,10.07
2023-05-22T07:18:17.376Z,9.25
2023-05-22T07:23:19.029Z,9.55
2023-05-22T07:28:20.711Z,9.20
2023-05-22T07:33:22.339Z,9.98
2023-05-22T07:38:23.998Z,9.45
2023-05-22T07:43:25.707Z,9.45
2023-05-22T07:48:27.357Z,9.10
2023-05-22T07:53:29.100Z,9.30
2023-05-22T07:58:30.760Z,9.40
2023-05-22T08:03:32.555Z,8.70
2023-05-22T08:08:34.697Z,8.95
2023-05-22T08:13:38.813Z,10.32
2023-05-22T08:18:40.890Z,10.82
2023-05-22T08:23:42.534Z,9.65
2023-05-22T08:28:44.547Z,8.55
2023-05-22T08:33:46.245Z,8.88
2023-05-22T08:38:47.872Z,8.65
2023-05-22T08:43:49.758Z,9.52
2023-05-22T08:48:52.156Z,8.27
2023-05-22T08:53:58.850Z,8.38
2023-05-22T09:04:10.137Z,8.43
2023-05-22T09:09:12.525Z,8.40
2023-05-22T09:14:16.095Z,9.40
2023-05-22T09:19:17.906Z,9.25
2023-05-22T09:24:19.644Z,9.73
2023-05-22T09:29:22.453Z,9.40
2023-05-22T09:34:28.934Z,9.52
2023-05-22T09:39:44.171Z,9.63
2023-05-22T09:44:50.134Z,8.70
2023-05-22T09:49:51.851Z,9.23
2023-05-22T09:54:56.710Z,9.68
2023-05-22T10:00:00.328Z,9.32
2023-05-22T10:05:06.911Z,9.80
2023-05-22T10:10:11.464Z,10.27
2023-05-22T10:15:13.939Z,9.82
2023-05-22T10:20:16.879Z,10.32
2023-05-22T10:25:18.555Z,9.57
2023-05-22T10:30:29.246Z,9.98
2023-05-22T10:35:52.774Z,9.05
2023-05-22T10:40:55.788Z,9.60
2023-05-22T10:46:04.523Z,9.60
2023-05-22T10:51:09.106Z,9.45
2023-05-22T10:56:16.384Z,9.60
2023-05-22T11:06:36.171Z,9.30
2023-05-22T11:11:37.851Z,9.20
2023-05-22T11:16:39.839Z,9.23
2023-05-22T11:21:46.423Z,9.65
2023-05-22T11:27:02.585Z,10.00
2023-05-22T11:32:04.640Z,9.63
2023-05-22T11:37:06.330Z,9.43
2023-05-22T11:42:07.990Z,8.70
2023-05-22T11:47:09.638Z,7.78
2023-05-22T11:52:11.219Z,8.25
2023-05-22T11:57:13.571Z,8.68
2023-05-22T12:02:21.321Z,7.93
2023-05-22T12:07:23.669Z,8.57
2023-05-22T12:12:25.988Z,8.45
2023-05-22T12:17:28.743Z,8.30
2023-05-22T12:22:30.406Z,8.07
2023-05-22T12:27:33.560Z,7.75
2023-05-22T12:32:35.558Z,7.78
2023-05-22T12:37:37.169Z,8.10
2023-05-22T12:42:38.994Z,8.70
2023-05-22T12:47:40.703Z,7.60
2023-05-22T12:52:42.423Z,7.18
2023-05-22T12:57:44.101Z,6.97
2023-05-22T13:02:46.006Z,6.93
2023-05-22T13:07:47.857Z,6.82
2023-05-22T13:12:51.586Z,6.68
2023-05-22T13:17:53.361Z,6.20
2023-05-22T13:22:55.082Z,7.03
2023-05-22T13:27:58.830Z,7.05
2023-05-22T13:33:00.529Z,6.90
2023-05-22T13:38:02.266Z,6.72
2023-05-22T13:43:03.860Z,6.63
2023-05-22T13:48:05.684Z,7.50
2023-05-22T13:53:25.782Z,6.97
2023-05-22T13:58:27.428Z,7.18
2023-05-22T14:03:29.106Z,6.68
2023-05-22T14:08:30.964Z,7.35
2023-05-22T14:13:32.694Z,7.18
2023-05-22T14:18:34.372Z,6.60
2023-05-22T14:23:35.955Z,7.22
2023-05-22T14:28:37.584Z,7.20
2023-05-22T14:33:39.182Z,7.10
2023-05-22T14:38:40.970Z,7.32
2023-05-22T14:43:42.676Z,6.65
2023-05-22T14:48:44.291Z,6.82
2023-05-22T14:53:46.049Z,6.18
2023-05-22T14:58:47.700Z,6.18
2023-05-22T15:05:26.949Z,6.60
2023-05-22T15:10:28.741Z,6.32
2023-05-22T15:15:30.472Z,6.25
2023-05-22T15:20:32.514Z,6.07
2023-05-22T15:25:36.517Z,5.90
2023-05-22T15:30:39.127Z,6.28
2023-05-22T15:35:42.009Z,5.95
2023-05-22T15:40:44.486Z,6.05
2023-05-22T15:45:49.442Z,6.10
2023-05-22T15:50:51.211Z,6.45
2023-05-22T15:55:52.951Z,6.25
2023-05-22T16:00:58.107Z,7.07
2023-05-22T16:05:59.840Z,6.70
2023-05-22T16:11:01.792Z,6.50
2023-05-22T16:16:05.951Z,6.72
2023-05-22T16:21:07.695Z,5.93
2023-05-22T16:26:09.379Z,6.07
2023-05-22T16:31:12.880Z,6.38
2023-05-22T16:36:14.720Z,6.25
2023-05-22T16:41:16.396Z,6.43
2023-05-22T16:46:18.535Z,6.82
2023-05-22T16:51:20.617Z,6.60
2023-05-22T16:56:22.747Z,7.20
2023-05-22T17:01:24.491Z,6.43
2023-05-22T17:06:27.687Z,6.60
2023-05-22T17:11:29.428Z,6.72
2023-05-22T17:16:31.592Z,6.25
2023-05-22T17:21:33.286Z,6.88
2023-05-22T17:26:34.976Z,6.53
2023-05-22T17:31:39.033Z,6.45
2023-05-22T17:36:43.288Z,6.07
2023-05-22T17:41:46.308Z,6.55
2023-05-22T17:46:49.366Z,6.93
2023-05-22T17:51:51.028Z,6.72
2023-05-22T17:56:52.703Z,6.72
2023-05-22T18:01:54.387Z,6.20
2023-05-22T18:06:56.058Z,6.50
2023-05-22T18:11:59.194Z,7.40
2023-05-22T18:17:00.967Z,6.82
2023-05-22T18:22:02.564Z,8.02
2023-05-22T18:27:04.530Z,7.75
2023-05-22T18:32:09.407Z,7.63
2023-05-22T18:37:11.089Z,8.10
2023-05-22T18:42:13.288Z,8.18
2023-05-22T18:47:14.935Z,8.27
2023-05-22T18:52:16.649Z,8.02
2023-05-22T18:57:18.233Z,7.97
2023-05-22T19:02:21.958Z,8.30
2023-05-22T19:07:23.789Z,8.10
2023-05-22T19:12:28.321Z,7.28
2023-05-22T19:17:29.986Z,7.63
2023-05-22T19:22:31.958Z,7.88
2023-05-22T19:27:33.620Z,7.18
2023-05-22T19:32:35.249Z,8.70
2023-05-22T19:37:37.240Z,7.88
2023-05-22T19:42:39.907Z,7.75
2023-05-22T19:47:41.559Z,8.43
2023-05-22T19:52:43.549Z,8.30
2023-05-22T19:57:45.286Z,8.52
2023-05-22T20:02:47.000Z,8.27
2023-05-22T20:07:48.903Z,8.57
2023-05-22T20:12:54.622Z,9.30
2023-05-22T20:17:57.870Z,8.57
2023-05-22T20:22:59.652Z,9.30
2023-05-22T20:28:02.845Z,9.18
2023-05-22T20:33:04.529Z,9.80
2023-05-22T20:38:08.809Z,9.55
2023-05-22T20:43:13.934Z,9.82
2023-05-22T20:48:16.653Z,9.88
2023-05-22T20:53:18.330Z,10.20
2023-05-22T20:58:20.117Z,9.90
2023-05-22T21:03:23.454Z,9.77
2023-05-22T21:08:26.578Z,9.82
2023-05-22T21:13:28.327Z,9.02
2023-05-22T21:18:30.049Z,10.13
2023-05-22T21:23:31.767Z,11.25
2023-05-22T21:28:33.436Z,11.52
2023-05-22T21:33:35.246Z,11.18
2023-05-22T21:38:36.897Z,11.80
2023-05-22T21:43:39.091Z,10.23
2023-05-22T21:48:40.916Z,9.55
2023-05-22T21:53:46.677Z,9.55
2023-05-22T21:58:48.597Z,10.55
2023-05-22T22:03:50.380Z,9.10
2023-05-22T22:08:53.258Z,9.88
2023-05-22T22:13:55.187Z,9.93
2023-05-22T22:18:58.146Z,10.52
2023-05-22T22:24:00.060Z,11.43
2023-05-22T22:29:01.784Z,11.50
2023-05-22T22:34:05.643Z,10.73
2023-05-22T22:39:07.457Z,11.25
2023-05-22T22:44:09.335Z,10.65
2023-05-22T22:49:11.082Z,10.65
2023-05-22T22:54:15.281Z,10.07
2023-05-22T22:59:17.346Z,11.32
2023-05-22T23:04:19.230Z,12.55
2023-05-22T23:09:20.980Z,13.27
2023-05-22T23:14:22.794Z,14.25
2023-05-22T23:19:24.702Z,13.98
2023-05-22T23:24:26.447Z,14.05
2023-05-22T23:29:28.170Z,13.68
2023-05-22T23:34:29.868Z,14.02
2023-05-22T23:39:31.596Z,15.05
2023-05-22T23:44:33.361Z,13.70
2023-05-22T23:49:35.154Z,12.82
2023-05-22T23:54:36.894Z,14.05
2023-05-22T23:59:39.157Z,17.55
